Aviation Digital Data Service (ADDS)

Output produced by TAFs form (1952 UTC 23 October 2014)
found at http://www.aviationweather.gov/adds/tafs/
 
KMDT 231743Z 2318/2418 34018G28KT P6SM OVC035 
     FM232000 32019G31KT P6SM BKN040 
     FM232300 32014KT P6SM BKN040 
     FM241300 30012G20KT P6SM SKC